TimeCST,TemperatureF,Dew PointF,Humidity,Sea Level PressureIn,VisibilityMPH,Wind Direction,Wind SpeedMPH,Gust SpeedMPH,PrecipitationIn,Events,Conditions,WindDirDegrees,DateUTC
12:15 AM,-15.9,-23.1,70,30.29,10.0,North,-9999.0,-,N/A,,Clear,0,2014-01-28 06:15:00
12:35 AM,-16.1,-23.4,69,30.29,10.0,West,5.8,-,N/A,,Clear,260,2014-01-28 06:35:00
12:55 AM,-16.8,-24.0,70,30.29,10.0,West,3.5,-,N/A,,Clear,260,2014-01-28 06:55:00
1:15 AM,-17.5,-24.0,72,30.28,10.0,WSW,5.8,-,N/A,,Clear,240,2014-01-28 07:15:00
1:35 AM,-17.9,-24.3,72,30.28,10.0,Calm,Calm,-,N/A,,Clear,0,2014-01-28 07:35:00
1:55 AM,-18.4,-24.2,75,30.28,10.0,Calm,Calm,-,N/A,,Clear,0,2014-01-28 07:55:00
2:15 AM,-19.5,-24.5,78,30.28,10.0,Calm,Calm,-,N/A,,Clear,0,2014-01-28 08:15:00
2:35 AM,-21.3,-26.1,78,30.28,10.0,Calm,Calm,-,N/A,,Clear,0,2014-01-28 08:35:00
2:55 AM,-21.1,-25.8,79,30.28,10.0,SW,3.5,-,N/A,,Clear,220,2014-01-28 08:55:00
3:15 AM,-21.6,-26.5,78,30.27,10.0,Calm,Calm,-,N/A,,Clear,0,2014-01-28 09:15:00
3:35 AM,-22.0,-26.7,79,30.26,10.0,Calm,Calm,-,N/A,,Clear,0,2014-01-28 09:35:00
3:55 AM,-21.8,-26.7,78,30.26,10.0,SW,4.6,-,N/A,,Clear,220,2014-01-28 09:55:00
4:15 AM,-21.5,-26.7,77,30.25,10.0,SW,3.5,-,N/A,,Clear,230,2014-01-28 10:15:00
4:35 AM,-21.3,-26.5,77,30.25,10.0,Calm,Calm,-,N/A,,Clear,0,2014-01-28 10:35:00
4:55 AM,-21.1,-26.5,76,30.25,10.0,SSW,3.5,-,N/A,,Clear,210,2014-01-28 10:55:00
5:15 AM,-21.1,-26.1,77,30.25,10.0,Calm,Calm,-,N/A,,Clear,0,2014-01-28 11:15:00
5:35 AM,-22.2,-27.4,77,30.25,10.0,Calm,Calm,-,N/A,,Clear,0,2014-01-28 11:35:00
5:55 AM,-22.9,-27.6,79,30.25,10.0,Calm,Calm,-,N/A,,Clear,0,2014-01-28 11:55:00
6:15 AM,-22.9,-27.8,78,30.25,10.0,Calm,Calm,-,N/A,,Clear,0,2014-01-28 12:15:00
6:35 AM,-23.1,-27.9,78,30.25,10.0,Calm,Calm,-,N/A,,Clear,0,2014-01-28 12:35:00
6:55 AM,-23.1,-27.9,78,30.25,10.0,Calm,Calm,-,N/A,,Clear,0,2014-01-28 12:55:00
7:15 AM,-20.6,-26.0,76,30.25,10.0,Calm,Calm,-,N/A,,Clear,0,2014-01-28 13:15:00
7:35 AM,-23.1,-28.5,76,30.24,7.0,Calm,Calm,-,N/A,,Clear,0,2014-01-28 13:35:00
7:55 AM,-23.6,-28.5,78,30.24,10.0,Calm,Calm,-,N/A,,Clear,0,2014-01-28 13:55:00
8:15 AM,-24.2,-28.8,79,30.25,10.0,Calm,Calm,-,N/A,,Clear,0,2014-01-28 14:15:00
8:35 AM,-20.6,-26.1,75,30.24,10.0,South,3.5,-,N/A,,Clear,190,2014-01-28 14:35:00
8:55 AM,-17.7,-22.7,78,30.24,7.0,SSW,3.5,-,N/A,,Clear,210,2014-01-28 14:55:00
9:15 AM,-16.2,-21.8,76,30.24,10.0,SSW,3.5,-,N/A,,Clear,200,2014-01-28 15:15:00
9:35 AM,-14.4,-19.7,77,30.23,10.0,Calm,Calm,-,N/A,,Clear,0,2014-01-28 15:35:00
9:55 AM,-12.5,-18.2,76,30.24,10.0,West,6.9,-,N/A,,Clear,260,2014-01-28 15:55:00
10:15 AM,-11.6,-17.9,74,30.24,10.0,West,4.6,-,N/A,,Clear,270,2014-01-28 16:15:00
10:35 AM,-11.4,-18.4,71,30.23,10.0,SW,6.9,-,N/A,,Clear,230,2014-01-28 16:35:00
10:55 AM,-10.3,-18.4,67,30.23,10.0,SW,8.1,-,N/A,,Clear,230,2014-01-28 16:55:00
11:15 AM,-9.4,-19.3,62,30.22,10.0,WSW,9.2,-,N/A,,Clear,250,2014-01-28 17:15:00
11:35 AM,-8.5,-19.3,59,30.22,10.0,WSW,3.5,-,N/A,,Clear,250,2014-01-28 17:35:00
11:55 AM,-7.8,-18.8,59,30.20,10.0,WSW,5.8,-,N/A,,Clear,250,2014-01-28 17:55:00
12:15 PM,-7.8,-18.6,59,30.19,10.0,WSW,9.2,-,N/A,,Clear,250,2014-01-28 18:15:00
12:35 PM,-7.4,-18.4,59,30.17,10.0,SW,8.1,-,N/A,,Clear,220,2014-01-28 18:35:00
12:55 PM,-7.4,-18.0,60,30.16,10.0,SW,10.4,-,N/A,,Clear,230,2014-01-28 18:55:00
1:15 PM,-6.7,-17.9,58,30.15,10.0,SW,8.1,-,N/A,,Clear,220,2014-01-28 19:15:00
1:35 PM,-5.4,-17.0,58,30.15,10.0,SW,8.1,-,N/A,,Clear,230,2014-01-28 19:35:00
1:55 PM,-4.7,-16.6,57,30.15,10.0,West,8.1,16.1,N/A,,Clear,260,2014-01-28 19:55:00
2:15 PM,-4.5,-16.8,56,30.14,10.0,SW,5.8,16.1,N/A,,Clear,230,2014-01-28 20:15:00
2:35 PM,-4.5,-16.8,56,30.14,10.0,SW,6.9,16.1,N/A,,Clear,230,2014-01-28 20:35:00
2:55 PM,-4.0,-16.6,55,30.13,10.0,SW,6.9,-,N/A,,Clear,230,2014-01-28 20:55:00
3:15 PM,-4.0,-15.9,57,30.12,10.0,SSW,11.5,-,N/A,,Scattered Clouds,210,2014-01-28 21:15:00
3:35 PM,-4.4,-15.9,58,30.12,10.0,WSW,9.2,-,N/A,,Scattered Clouds,240,2014-01-28 21:35:00
3:55 PM,-4.5,-15.9,58,30.12,10.0,SW,9.2,-,N/A,,Mostly Cloudy,230,2014-01-28 21:55:00
4:15 PM,-4.7,-15.9,59,30.11,10.0,SW,6.9,-,N/A,,Overcast,230,2014-01-28 22:15:00
4:35 PM,-4.4,-15.7,58,30.10,10.0,WSW,4.6,-,N/A,,Mostly Cloudy,240,2014-01-28 22:35:00
4:55 PM,-4.4,-15.3,59,30.11,10.0,WSW,3.5,-,N/A,,Scattered Clouds,240,2014-01-28 22:55:00
5:15 PM,-4.7,-15.7,59,30.11,10.0,WSW,8.1,-,N/A,,Clear,240,2014-01-28 23:15:00
5:35 PM,-4.9,-15.7,60,30.11,10.0,WSW,5.8,-,N/A,,Clear,240,2014-01-28 23:35:00
5:55 PM,-5.1,-15.7,60,30.11,10.0,SW,6.9,-,N/A,,Clear,230,2014-01-28 23:55:00
6:15 PM,-5.6,-15.9,61,30.10,10.0,WSW,5.8,-,N/A,,Clear,240,2014-01-29 00:15:00
6:35 PM,-6.0,-15.9,62,30.09,10.0,SW,3.5,-,N/A,,Clear,230,2014-01-29 00:35:00
6:55 PM,-6.5,-16.1,63,30.08,10.0,SW,5.8,-,N/A,,Scattered Clouds,230,2014-01-29 00:55:00
7:15 PM,-6.0,-15.0,65,30.07,10.0,SW,5.8,-,N/A,,Scattered Clouds,230,2014-01-29 01:15:00
7:35 PM,-5.6,-14.8,65,30.08,10.0,WSW,8.1,-,N/A,,Mostly Cloudy,240,2014-01-29 01:35:00
7:55 PM,-4.9,-14.3,64,30.06,10.0,WSW,8.1,-,N/A,,Mostly Cloudy,250,2014-01-29 01:55:00
8:15 PM,-5.1,-14.1,65,30.06,10.0,WSW,8.1,-,N/A,,Scattered Clouds,240,2014-01-29 02:15:00
8:35 PM,-5.1,-14.1,65,30.06,10.0,West,8.1,-,N/A,,Clear,260,2014-01-29 02:35:00
8:55 PM,-5.3,-13.9,66,30.05,10.0,WSW,4.6,-,N/A,,Clear,250,2014-01-29 02:55:00
9:15 PM,-5.1,-13.9,66,30.04,10.0,WSW,6.9,-,N/A,,Clear,250,2014-01-29 03:15:00
9:35 PM,-4.9,-13.5,66,30.04,10.0,WSW,8.1,-,N/A,,Clear,250,2014-01-29 03:35:00
9:55 PM,-5.3,-13.7,67,30.03,10.0,WSW,5.8,-,N/A,,Clear,240,2014-01-29 03:55:00
10:15 PM,-5.4,-13.9,67,30.03,10.0,WSW,6.9,-,N/A,,Scattered Clouds,250,2014-01-29 04:15:00
10:35 PM,-5.8,-14.1,67,30.04,10.0,WSW,5.8,-,N/A,,Clear,250,2014-01-29 04:35:00
10:55 PM,-5.4,-13.7,67,30.03,10.0,WSW,4.6,-,N/A,,Mostly Cloudy,240,2014-01-29 04:55:00
11:15 PM,-5.3,-13.5,67,30.02,10.0,WSW,4.6,-,N/A,,Mostly Cloudy,240,2014-01-29 05:15:00
11:35 PM,-5.4,-13.2,69,30.02,10.0,SW,3.5,-,N/A,,Scattered Clouds,220,2014-01-29 05:35:00
11:55 PM,-7.1,-14.6,70,30.02,10.0,SSW,5.8,-,N/A,,Clear,210,2014-01-29 05:55:00